Chilly, Idaho
Current Conditions -  °F | °C
As of 7:47 AM on Thursday 23 Oct 2014 (Local Time) from KSUN Reporting Station
Overcast Overcast  
Wind Chill: 40°   Ceiling: 11000
Heat Index: 45°   Visibility: 10mi
Dew Point: 37°   Wind: 8mph
Humidity: 76%   Direction: 300°WNW
Pressure: 30.13"   Gusts: NA
Location:  43.8935°N, 113.876°W
Report Text: KSUN 231347Z 30007KT 10SM OVC110 07/03 A3013 RMK BINOVC SOUTH
Loading
Personal Weather Stations






























Interactive Weather Map
Tropical Storm Tracking
New forecast layout! Learn more

10-Day Weather Forecast

Advertisements
Track Severe Weather on mobile